sensor_id;sensor_type;location;lat;lon;timestamp;P1;durP1;ratioP1;P2;durP2;ratioP2
70385;SDS011;57804;55.650;37.500;2022-08-11T00:01:22;3.75;;;1.92;;
70385;SDS011;57804;55.650;37.500;2022-08-11T00:03:56;4.50;;;1.95;;
70385;SDS011;57804;55.650;37.500;2022-08-11T00:06:37;3.95;;;2.08;;
70385;SDS011;57804;55.650;37.500;2022-08-11T00:09:08;6.32;;;1.92;;
70385;SDS011;57804;55.650;37.500;2022-08-11T00:11:52;4.97;;;2.08;;
70385;SDS011;57804;55.650;37.500;2022-08-11T00:14:30;5.78;;;2.17;;
70385;SDS011;57804;55.650;37.500;2022-08-11T00:17:00;3.03;;;1.80;;
70385;SDS011;57804;55.650;37.500;2022-08-11T00:19:33;5.30;;;2.03;;
70385;SDS011;57804;55.650;37.500;2022-08-11T00:22:07;4.93;;;1.75;;
70385;SDS011;57804;55.650;37.500;2022-08-11T00:27:09;3.28;;;1.90;;
70385;SDS011;57804;55.650;37.500;2022-08-11T00:29:39;6.47;;;2.10;;
70385;SDS011;57804;55.650;37.500;2022-08-11T00:32:12;3.55;;;2.00;;
70385;SDS011;57804;55.650;37.500;2022-08-11T00:34:44;5.30;;;2.08;;
70385;SDS011;57804;55.650;37.500;2022-08-11T00:37:18;7.47;;;2.20;;
70385;SDS011;57804;55.650;37.500;2022-08-11T00:39:52;4.95;;;2.17;;
70385;SDS011;57804;55.650;37.500;2022-08-11T00:45:32;7.03;;;2.30;;
70385;SDS011;57804;55.650;37.500;2022-08-11T00:48:19;4.88;;;1.90;;
70385;SDS011;57804;55.650;37.500;2022-08-11T00:54:39;4.72;;;2.25;;
70385;SDS011;57804;55.650;37.500;2022-08-11T01:00:16;7.07;;;2.10;;
70385;SDS011;57804;55.650;37.500;2022-08-11T01:11:16;5.22;;;2.05;;
70385;SDS011;57804;55.650;37.500;2022-08-11T01:23:15;3.97;;;2.00;;
70385;SDS011;57804;55.650;37.500;2022-08-11T01:31:55;5.28;;;2.17;;
70385;SDS011;57804;55.650;37.500;2022-08-11T01:48:42;5.05;;;2.03;;
70385;SDS011;57804;55.650;37.500;2022-08-11T01:54:36;3.17;;;1.90;;
70385;SDS011;57804;55.650;37.500;2022-08-11T02:00:09;4.55;;;2.08;;
70385;SDS011;57804;55.650;37.500;2022-08-11T02:03:00;6.25;;;1.95;;
70385;SDS011;57804;55.650;37.500;2022-08-11T02:11:17;2.85;;;1.70;;
70385;SDS011;57804;55.650;37.500;2022-08-11T02:19:56;4.97;;;1.85;;
70385;SDS011;57804;55.650;37.500;2022-08-11T02:32:06;5.40;;;2.30;;
70385;SDS011;57804;55.650;37.500;2022-08-11T02:37:44;5.25;;;2.17;;
70385;SDS011;57804;55.650;37.500;2022-08-11T02:43:10;7.55;;;2.30;;
70385;SDS011;57804;55.650;37.500;2022-08-11T02:46:25;5.20;;;1.90;;
70385;SDS011;57804;55.650;37.500;2022-08-11T03:05:48;8.50;;;2.95;;
70385;SDS011;57804;55.650;37.500;2022-08-11T03:08:35;11.82;;;3.80;;
70385;SDS011;57804;55.650;37.500;2022-08-11T03:14:28;5.30;;;2.13;;
70385;SDS011;57804;55.650;37.500;2022-08-11T03:17:31;6.00;;;2.10;;
70385;SDS011;57804;55.650;37.500;2022-08-11T03:25:53;6.95;;;2.47;;
70385;SDS011;57804;55.650;37.500;2022-08-11T03:28:58;5.35;;;2.28;;
70385;SDS011;57804;55.650;37.500;2022-08-11T03:34:28;5.53;;;2.22;;
70385;SDS011;57804;55.650;37.500;2022-08-11T03:43:19;7.28;;;2.38;;
70385;SDS011;57804;55.650;37.500;2022-08-11T03:46:13;4.18;;;2.03;;
70385;SDS011;57804;55.650;37.500;2022-08-11T03:52:06;6.03;;;2.13;;
70385;SDS011;57804;55.650;37.500;2022-08-11T03:54:36;4.57;;;2.13;;
70385;SDS011;57804;55.650;37.500;2022-08-11T03:57:20;6.25;;;2.10;;
70385;SDS011;57804;55.650;37.500;2022-08-11T04:05:48;12.60;;;2.80;;
70385;SDS011;57804;55.650;37.500;2022-08-11T04:11:49;13.85;;;2.78;;
70385;SDS011;57804;55.650;37.500;2022-08-11T04:26:47;4.25;;;2.30;;
70385;SDS011;57804;55.650;37.500;2022-08-11T04:29:09;4.70;;;2.50;;
70385;SDS011;57804;55.650;37.500;2022-08-11T04:34:50;4.93;;;2.10;;
70385;SDS011;57804;55.650;37.500;2022-08-11T04:48:57;6.63;;;2.60;;
70385;SDS011;57804;55.650;37.500;2022-08-11T04:52:52;7.97;;;2.45;;
70385;SDS011;57804;55.650;37.500;2022-08-11T04:55:31;6.93;;;2.58;;
70385;SDS011;57804;55.650;37.500;2022-08-11T05:07:46;6.10;;;2.53;;
70385;SDS011;57804;55.650;37.500;2022-08-11T05:13:33;5.50;;;2.45;;
70385;SDS011;57804;55.650;37.500;2022-08-11T05:16:32;5.38;;;2.58;;
70385;SDS011;57804;55.650;37.500;2022-08-11T05:19:38;8.10;;;2.55;;
70385;SDS011;57804;55.650;37.500;2022-08-11T05:22:32;18.35;;;3.88;;
70385;SDS011;57804;55.650;37.500;2022-08-11T05:25:30;5.72;;;2.38;;
70385;SDS011;57804;55.650;37.500;2022-08-11T05:31:45;5.82;;;2.53;;
70385;SDS011;57804;55.650;37.500;2022-08-11T05:34:45;5.55;;;2.38;;
70385;SDS011;57804;55.650;37.500;2022-08-11T05:37:30;6.00;;;2.40;;
70385;SDS011;57804;55.650;37.500;2022-08-11T05:40:06;5.68;;;2.55;;
70385;SDS011;57804;55.650;37.500;2022-08-11T05:43:27;4.40;;;2.20;;
70385;SDS011;57804;55.650;37.500;2022-08-11T05:46:06;7.32;;;2.88;;
70385;SDS011;57804;55.650;37.500;2022-08-11T05:48:52;5.63;;;2.47;;
70385;SDS011;57804;55.650;37.500;2022-08-11T05:51:42;5.25;;;2.65;;
70385;SDS011;57804;55.650;37.500;2022-08-11T05:54:30;5.10;;;2.40;;
70385;SDS011;57804;55.650;37.500;2022-08-11T05:57:32;7.90;;;2.70;;
70385;SDS011;57804;55.650;37.500;2022-08-11T06:00:05;4.15;;;2.20;;
70385;SDS011;57804;55.650;37.500;2022-08-11T06:02:42;6.47;;;2.60;;
70385;SDS011;57804;55.650;37.500;2022-08-11T06:05:11;5.50;;;2.47;;
70385;SDS011;57804;55.650;37.500;2022-08-11T06:07:41;7.78;;;2.60;;
70385;SDS011;57804;55.650;37.500;2022-08-11T06:13:17;4.55;;;2.40;;
70385;SDS011;57804;55.650;37.500;2022-08-11T06:15:44;4.40;;;2.22;;
70385;SDS011;57804;55.650;37.500;2022-08-11T06:18:15;4.90;;;2.50;;
70385;SDS011;57804;55.650;37.500;2022-08-11T06:20:45;5.80;;;2.42;;
70385;SDS011;57804;55.650;37.500;2022-08-11T06:23:17;6.95;;;2.70;;
70385;SDS011;57804;55.650;37.500;2022-08-11T06:25:46;7.18;;;2.70;;
70385;SDS011;57804;55.650;37.500;2022-08-11T06:28:18;6.82;;;2.47;;
70385;SDS011;57804;55.650;37.500;2022-08-11T06:31:01;9.55;;;3.13;;
70385;SDS011;57804;55.650;37.500;2022-08-11T06:33:37;6.50;;;2.83;;
70385;SDS011;57804;55.650;37.500;2022-08-11T06:36:27;7.22;;;2.53;;
70385;SDS011;57804;55.650;37.500;2022-08-11T06:44:39;5.80;;;2.65;;
70385;SDS011;57804;55.650;37.500;2022-08-11T06:47:09;6.03;;;2.25;;
70385;SDS011;57804;55.650;37.500;2022-08-11T06:49:38;10.20;;;3.58;;
70385;SDS011;57804;55.650;37.500;2022-08-11T06:52:32;6.55;;;2.63;;
70385;SDS011;57804;55.650;37.500;2022-08-11T06:55:11;6.70;;;2.47;;
70385;SDS011;57804;55.650;37.500;2022-08-11T06:58:02;6.40;;;2.40;;
70385;SDS011;57804;55.650;37.500;2022-08-11T07:00:51;6.45;;;2.60;;
70385;SDS011;57804;55.650;37.500;2022-08-11T07:03:24;7.25;;;2.60;;
70385;SDS011;57804;55.650;37.500;2022-08-11T07:18:15;5.88;;;2.00;;
70385;SDS011;57804;55.650;37.500;2022-08-11T07:21:25;4.47;;;2.10;;
70385;SDS011;57804;55.650;37.500;2022-08-11T07:24:22;6.65;;;2.40;;
70385;SDS011;57804;55.650;37.500;2022-08-11T07:27:15;8.85;;;3.00;;
70385;SDS011;57804;55.650;37.500;2022-08-11T07:30:07;4.95;;;2.17;;
70385;SDS011;57804;55.650;37.500;2022-08-11T07:32:36;4.50;;;2.08;;
70385;SDS011;57804;55.650;37.500;2022-08-11T07:36:02;3.65;;;1.98;;
70385;SDS011;57804;55.650;37.500;2022-08-11T07:38:16;6.07;;;2.08;;
70385;SDS011;57804;55.650;37.500;2022-08-11T07:40:46;5.82;;;2.13;;
70385;SDS011;57804;55.650;37.500;2022-08-11T07:43:16;4.93;;;2.20;;
70385;SDS011;57804;55.650;37.500;2022-08-11T07:45:45;4.05;;;2.08;;
70385;SDS011;57804;55.650;37.500;2022-08-11T07:48:32;5.45;;;2.15;;
70385;SDS011;57804;55.650;37.500;2022-08-11T07:51:20;5.28;;;2.30;;
70385;SDS011;57804;55.650;37.500;2022-08-11T07:54:07;3.35;;;2.20;;
70385;SDS011;57804;55.650;37.500;2022-08-11T07:56:38;4.78;;;2.45;;
70385;SDS011;57804;55.650;37.500;2022-08-11T07:59:05;5.65;;;2.58;;
70385;SDS011;57804;55.650;37.500;2022-08-11T08:01:53;4.55;;;2.47;;
70385;SDS011;57804;55.650;37.500;2022-08-11T08:04:41;4.60;;;2.20;;
70385;SDS011;57804;55.650;37.500;2022-08-11T08:07:30;3.92;;;2.38;;
70385;SDS011;57804;55.650;37.500;2022-08-11T08:10:16;4.45;;;2.60;;
70385;SDS011;57804;55.650;37.500;2022-08-11T08:13:07;4.93;;;2.28;;
70385;SDS011;57804;55.650;37.500;2022-08-11T08:15:55;5.47;;;2.67;;
70385;SDS011;57804;55.650;37.500;2022-08-11T08:18:40;5.43;;;2.40;;
70385;SDS011;57804;55.650;37.500;2022-08-11T08:21:06;5.18;;;2.28;;
70385;SDS011;57804;55.650;37.500;2022-08-11T08:23:46;6.57;;;2.88;;
70385;SDS011;57804;55.650;37.500;2022-08-11T08:26:18;7.70;;;2.90;;
70385;SDS011;57804;55.650;37.500;2022-08-11T08:29:04;4.80;;;2.70;;
70385;SDS011;57804;55.650;37.500;2022-08-11T08:31:51;5.35;;;2.55;;
70385;SDS011;57804;55.650;37.500;2022-08-11T08:34:18;5.25;;;2.50;;
70385;SDS011;57804;55.650;37.500;2022-08-11T08:36:46;4.32;;;2.42;;
70385;SDS011;57804;55.650;37.500;2022-08-11T08:39:12;6.00;;;2.78;;
70385;SDS011;57804;55.650;37.500;2022-08-11T08:41:42;6.80;;;2.88;;
70385;SDS011;57804;55.650;37.500;2022-08-11T08:44:09;8.38;;;3.00;;
70385;SDS011;57804;55.650;37.500;2022-08-11T08:46:36;5.80;;;2.47;;
70385;SDS011;57804;55.650;37.500;2022-08-11T08:49:04;4.93;;;2.55;;
70385;SDS011;57804;55.650;37.500;2022-08-11T08:51:37;6.22;;;2.45;;
70385;SDS011;57804;55.650;37.500;2022-08-11T08:54:06;4.65;;;2.65;;
70385;SDS011;57804;55.650;37.500;2022-08-11T08:56:44;5.13;;;2.47;;
70385;SDS011;57804;55.650;37.500;2022-08-11T08:59:19;5.57;;;2.58;;
70385;SDS011;57804;55.650;37.500;2022-08-11T09:01:52;4.32;;;2.40;;
70385;SDS011;57804;55.650;37.500;2022-08-11T09:04:25;5.57;;;2.58;;
70385;SDS011;57804;55.650;37.500;2022-08-11T09:06:55;5.72;;;2.60;;
70385;SDS011;57804;55.650;37.500;2022-08-11T09:09:24;4.25;;;2.40;;
70385;SDS011;57804;55.650;37.500;2022-08-11T09:11:54;5.80;;;2.58;;
70385;SDS011;57804;55.650;37.500;2022-08-11T09:14:54;4.90;;;2.58;;
70385;SDS011;57804;55.650;37.500;2022-08-11T09:17:42;3.10;;;2.35;;
70385;SDS011;57804;55.650;37.500;2022-08-11T09:20:14;4.70;;;2.50;;
70385;SDS011;57804;55.650;37.500;2022-08-11T09:22:48;5.03;;;2.50;;
70385;SDS011;57804;55.650;37.500;2022-08-11T09:25:37;2.92;;;2.42;;
70385;SDS011;57804;55.650;37.500;2022-08-11T09:28:28;5.40;;;2.60;;
70385;SDS011;57804;55.650;37.500;2022-08-11T09:30:55;4.30;;;2.53;;
70385;SDS011;57804;55.650;37.500;2022-08-11T09:33:29;3.65;;;2.45;;
70385;SDS011;57804;55.650;37.500;2022-08-11T09:36:02;3.67;;;2.45;;
70385;SDS011;57804;55.650;37.500;2022-08-11T09:38:53;3.53;;;2.20;;
70385;SDS011;57804;55.650;37.500;2022-08-11T09:41:42;4.28;;;2.47;;
70385;SDS011;57804;55.650;37.500;2022-08-11T09:44:15;3.58;;;2.17;;
70385;SDS011;57804;55.650;37.500;2022-08-11T09:47:02;5.43;;;2.50;;
70385;SDS011;57804;55.650;37.500;2022-08-11T09:49:37;5.15;;;2.80;;
70385;SDS011;57804;55.650;37.500;2022-08-11T09:52:11;3.40;;;2.47;;
70385;SDS011;57804;55.650;37.500;2022-08-11T09:54:46;5.70;;;2.70;;
70385;SDS011;57804;55.650;37.500;2022-08-11T09:57:20;4.53;;;2.65;;
70385;SDS011;57804;55.650;37.500;2022-08-11T10:00:06;4.13;;;2.60;;
70385;SDS011;57804;55.650;37.500;2022-08-11T10:02:42;4.13;;;2.60;;
70385;SDS011;57804;55.650;37.500;2022-08-11T10:05:08;4.40;;;2.58;;
70385;SDS011;57804;55.650;37.500;2022-08-11T10:08:00;4.22;;;2.50;;
70385;SDS011;57804;55.650;37.500;2022-08-11T10:10:28;5.05;;;2.63;;
70385;SDS011;57804;55.650;37.500;2022-08-11T10:12:58;4.85;;;2.50;;
70385;SDS011;57804;55.650;37.500;2022-08-11T10:15:31;3.55;;;2.40;;
70385;SDS011;57804;55.650;37.500;2022-08-11T10:23:41;10.85;;;3.08;;
70385;SDS011;57804;55.650;37.500;2022-08-11T10:26:27;4.07;;;2.67;;
70385;SDS011;57804;55.650;37.500;2022-08-11T10:29:12;5.45;;;3.08;;
70385;SDS011;57804;55.650;37.500;2022-08-11T10:32:00;5.47;;;3.20;;
70385;SDS011;57804;55.650;37.500;2022-08-11T10:34:49;6.10;;;2.63;;
70385;SDS011;57804;55.650;37.500;2022-08-11T10:37:21;8.50;;;3.45;;
70385;SDS011;57804;55.650;37.500;2022-08-11T10:39:48;5.35;;;2.58;;
70385;SDS011;57804;55.650;37.500;2022-08-11T10:42:14;6.25;;;2.65;;
70385;SDS011;57804;55.650;37.500;2022-08-11T10:45:05;3.38;;;2.47;;
70385;SDS011;57804;55.650;37.500;2022-08-11T10:47:54;3.20;;;2.40;;
70385;SDS011;57804;55.650;37.500;2022-08-11T10:50:23;5.90;;;2.90;;
70385;SDS011;57804;55.650;37.500;2022-08-11T10:53:11;4.25;;;2.55;;
70385;SDS011;57804;55.650;37.500;2022-08-11T10:55:57;4.55;;;2.65;;
70385;SDS011;57804;55.650;37.500;2022-08-11T10:58:42;5.03;;;2.70;;
70385;SDS011;57804;55.650;37.500;2022-08-11T11:12:08;4.00;;;2.78;;
70385;SDS011;57804;55.650;37.500;2022-08-11T11:14:57;3.45;;;2.83;;
70385;SDS011;57804;55.650;37.500;2022-08-11T11:17:42;3.70;;;2.60;;
70385;SDS011;57804;55.650;37.500;2022-08-11T11:20:24;4.28;;;2.88;;
70385;SDS011;57804;55.650;37.500;2022-08-11T11:22:53;5.20;;;2.95;;
70385;SDS011;57804;55.650;37.500;2022-08-11T11:27:53;3.92;;;2.70;;
70385;SDS011;57804;55.650;37.500;2022-08-11T11:30:23;4.10;;;2.88;;
70385;SDS011;57804;55.650;37.500;2022-08-11T11:35:34;7.28;;;3.38;;
70385;SDS011;57804;55.650;37.500;2022-08-11T11:38:01;5.35;;;3.30;;
70385;SDS011;57804;55.650;37.500;2022-08-11T11:40:27;4.82;;;2.75;;
70385;SDS011;57804;55.650;37.500;2022-08-11T11:42:54;4.65;;;2.78;;
70385;SDS011;57804;55.650;37.500;2022-08-11T11:45:22;5.90;;;3.30;;
70385;SDS011;57804;55.650;37.500;2022-08-11T11:47:51;4.47;;;3.13;;
70385;SDS011;57804;55.650;37.500;2022-08-11T11:50:23;5.07;;;2.97;;
70385;SDS011;57804;55.650;37.500;2022-08-11T11:52:50;4.28;;;3.15;;
70385;SDS011;57804;55.650;37.500;2022-08-11T11:55:21;5.65;;;3.33;;
70385;SDS011;57804;55.650;37.500;2022-08-11T11:57:49;10.18;;;4.47;;
70385;SDS011;57804;55.650;37.500;2022-08-11T12:00:37;4.43;;;2.83;;
70385;SDS011;57804;55.650;37.500;2022-08-11T12:03:23;5.13;;;3.35;;
70385;SDS011;57804;55.650;37.500;2022-08-11T12:05:51;4.95;;;3.33;;
70385;SDS011;57804;55.650;37.500;2022-08-11T12:08:18;5.65;;;2.85;;
70385;SDS011;57804;55.650;37.500;2022-08-11T12:10:51;5.78;;;3.42;;
70385;SDS011;57804;55.650;37.500;2022-08-11T12:13:39;5.15;;;3.47;;
70385;SDS011;57804;55.650;37.500;2022-08-11T12:16:05;6.32;;;3.25;;
70385;SDS011;57804;55.650;37.500;2022-08-11T12:18:33;8.02;;;3.45;;
70385;SDS011;57804;55.650;37.500;2022-08-11T12:21:03;5.35;;;3.20;;
70385;SDS011;57804;55.650;37.500;2022-08-11T12:23:31;4.72;;;3.17;;
70385;SDS011;57804;55.650;37.500;2022-08-11T12:26:18;4.90;;;3.00;;
70385;SDS011;57804;55.650;37.500;2022-08-11T12:29:23;4.75;;;3.00;;
70385;SDS011;57804;55.650;37.500;2022-08-11T12:31:55;5.90;;;3.40;;
70385;SDS011;57804;55.650;37.500;2022-08-11T12:34:24;4.57;;;3.10;;
70385;SDS011;57804;55.650;37.500;2022-08-11T12:36:54;4.20;;;2.67;;
70385;SDS011;57804;55.650;37.500;2022-08-11T12:39:22;7.80;;;3.28;;
70385;SDS011;57804;55.650;37.500;2022-08-11T12:42:10;4.97;;;2.97;;
70385;SDS011;57804;55.650;37.500;2022-08-11T12:47:40;6.00;;;3.17;;
70385;SDS011;57804;55.650;37.500;2022-08-11T12:50:27;6.35;;;3.20;;
70385;SDS011;57804;55.650;37.500;2022-08-11T12:55:41;9.70;;;3.78;;
70385;SDS011;57804;55.650;37.500;2022-08-11T12:58:26;5.90;;;3.00;;
70385;SDS011;57804;55.650;37.500;2022-08-11T13:00:55;5.22;;;3.10;;
70385;SDS011;57804;55.650;37.500;2022-08-11T13:03:42;5.45;;;2.78;;
70385;SDS011;57804;55.650;37.500;2022-08-11T13:06:27;5.30;;;2.97;;
70385;SDS011;57804;55.650;37.500;2022-08-11T13:08:55;5.43;;;2.88;;
70385;SDS011;57804;55.650;37.500;2022-08-11T13:11:23;5.05;;;2.90;;
70385;SDS011;57804;55.650;37.500;2022-08-11T13:14:11;5.22;;;2.90;;
70385;SDS011;57804;55.650;37.500;2022-08-11T13:19:26;6.32;;;2.97;;
70385;SDS011;57804;55.650;37.500;2022-08-11T13:21:55;6.90;;;3.25;;
70385;SDS011;57804;55.650;37.500;2022-08-11T13:24:25;6.10;;;3.00;;
70385;SDS011;57804;55.650;37.500;2022-08-11T13:26:53;6.65;;;3.15;;
70385;SDS011;57804;55.650;37.500;2022-08-11T13:29:21;6.88;;;3.20;;
70385;SDS011;57804;55.650;37.500;2022-08-11T13:31:49;6.38;;;3.15;;
70385;SDS011;57804;55.650;37.500;2022-08-11T13:34:16;6.40;;;3.00;;
70385;SDS011;57804;55.650;37.500;2022-08-11T13:36:43;6.40;;;3.40;;
70385;SDS011;57804;55.650;37.500;2022-08-11T13:39:10;10.02;;;3.28;;
70385;SDS011;57804;55.650;37.500;2022-08-11T13:41:36;7.68;;;3.35;;
70385;SDS011;57804;55.650;37.500;2022-08-11T13:44:10;7.13;;;3.65;;
70385;SDS011;57804;55.650;37.500;2022-08-11T13:46:37;7.35;;;3.47;;
70385;SDS011;57804;55.650;37.500;2022-08-11T13:49:03;6.72;;;3.08;;
70385;SDS011;57804;55.650;37.500;2022-08-11T13:51:32;6.85;;;3.30;;
70385;SDS011;57804;55.650;37.500;2022-08-11T13:54:03;7.03;;;3.15;;
70385;SDS011;57804;55.650;37.500;2022-08-11T13:56:30;7.45;;;3.22;;
70385;SDS011;57804;55.650;37.500;2022-08-11T13:58:56;8.07;;;3.50;;
70385;SDS011;57804;55.650;37.500;2022-08-11T14:01:25;6.07;;;3.00;;
70385;SDS011;57804;55.650;37.500;2022-08-11T14:03:56;5.15;;;3.17;;
70385;SDS011;57804;55.650;37.500;2022-08-11T14:06:28;6.57;;;3.22;;
70385;SDS011;57804;55.650;37.500;2022-08-11T14:08:57;9.00;;;3.28;;
70385;SDS011;57804;55.650;37.500;2022-08-11T14:11:24;5.97;;;3.10;;
70385;SDS011;57804;55.650;37.500;2022-08-11T14:14:22;7.38;;;3.50;;
70385;SDS011;57804;55.650;37.500;2022-08-11T14:16:53;7.35;;;3.50;;
70385;SDS011;57804;55.650;37.500;2022-08-11T14:19:23;6.03;;;2.95;;
70385;SDS011;57804;55.650;37.500;2022-08-11T14:21:50;7.88;;;3.60;;
70385;SDS011;57804;55.650;37.500;2022-08-11T14:24:39;5.72;;;2.95;;
70385;SDS011;57804;55.650;37.500;2022-08-11T14:27:06;7.35;;;3.10;;
70385;SDS011;57804;55.650;37.500;2022-08-11T14:29:33;5.97;;;3.20;;
70385;SDS011;57804;55.650;37.500;2022-08-11T14:32:07;5.63;;;3.20;;
70385;SDS011;57804;55.650;37.500;2022-08-11T14:34:34;6.57;;;3.10;;
70385;SDS011;57804;55.650;37.500;2022-08-11T14:37:11;7.25;;;3.00;;
70385;SDS011;57804;55.650;37.500;2022-08-11T14:39:45;6.80;;;3.22;;
70385;SDS011;57804;55.650;37.500;2022-08-11T14:42:12;7.38;;;3.55;;
70385;SDS011;57804;55.650;37.500;2022-08-11T14:44:58;6.07;;;2.95;;
70385;SDS011;57804;55.650;37.500;2022-08-11T14:47:46;7.53;;;3.10;;
70385;SDS011;57804;55.650;37.500;2022-08-11T14:50:14;6.82;;;3.67;;
70385;SDS011;57804;55.650;37.500;2022-08-11T14:55:16;7.55;;;3.78;;
70385;SDS011;57804;55.650;37.500;2022-08-11T14:58:01;5.47;;;3.17;;
70385;SDS011;57804;55.650;37.500;2022-08-11T15:00:27;7.60;;;3.25;;
70385;SDS011;57804;55.650;37.500;2022-08-11T15:02:54;5.82;;;2.97;;
70385;SDS011;57804;55.650;37.500;2022-08-11T15:05:37;7.88;;;3.13;;
70385;SDS011;57804;55.650;37.500;2022-08-11T15:08:04;7.40;;;3.58;;
70385;SDS011;57804;55.650;37.500;2022-08-11T15:10:34;7.00;;;3.45;;
70385;SDS011;57804;55.650;37.500;2022-08-11T15:13:01;6.55;;;3.42;;
70385;SDS011;57804;55.650;37.500;2022-08-11T15:15:27;10.90;;;3.53;;
70385;SDS011;57804;55.650;37.500;2022-08-11T15:18:13;6.93;;;3.38;;
70385;SDS011;57804;55.650;37.500;2022-08-11T15:20:42;6.93;;;3.20;;
70385;SDS011;57804;55.650;37.500;2022-08-11T15:23:27;6.55;;;3.30;;
70385;SDS011;57804;55.650;37.500;2022-08-11T15:26:19;6.47;;;3.33;;
70385;SDS011;57804;55.650;37.500;2022-08-11T15:29:07;8.07;;;3.40;;
70385;SDS011;57804;55.650;37.500;2022-08-11T15:31:52;5.80;;;3.13;;
70385;SDS011;57804;55.650;37.500;2022-08-11T15:34:56;7.95;;;3.22;;
70385;SDS011;57804;55.650;37.500;2022-08-11T15:37:44;6.18;;;3.15;;
70385;SDS011;57804;55.650;37.500;2022-08-11T15:40:22;9.10;;;3.20;;
70385;SDS011;57804;55.650;37.500;2022-08-11T15:45:54;7.80;;;3.20;;
70385;SDS011;57804;55.650;37.500;2022-08-11T15:51:08;7.72;;;3.80;;
70385;SDS011;57804;55.650;37.500;2022-08-11T15:53:44;9.52;;;3.50;;
70385;SDS011;57804;55.650;37.500;2022-08-11T15:56:11;7.40;;;3.22;;
70385;SDS011;57804;55.650;37.500;2022-08-11T15:58:40;8.68;;;3.70;;
70385;SDS011;57804;55.650;37.500;2022-08-11T16:01:25;5.90;;;2.95;;
70385;SDS011;57804;55.650;37.500;2022-08-11T16:04:13;8.23;;;3.20;;
70385;SDS011;57804;55.650;37.500;2022-08-11T16:06:42;9.13;;;3.22;;
70385;SDS011;57804;55.650;37.500;2022-08-11T16:09:09;6.82;;;3.40;;
70385;SDS011;57804;55.650;37.500;2022-08-11T16:11:36;5.60;;;3.15;;
70385;SDS011;57804;55.650;37.500;2022-08-11T16:14:02;8.02;;;3.40;;
70385;SDS011;57804;55.650;37.500;2022-08-11T16:16:48;8.07;;;3.47;;
70385;SDS011;57804;55.650;37.500;2022-08-11T16:19:14;6.70;;;3.10;;
70385;SDS011;57804;55.650;37.500;2022-08-11T16:21:41;11.80;;;3.58;;
70385;SDS011;57804;55.650;37.500;2022-08-11T16:24:12;8.65;;;3.55;;
70385;SDS011;57804;55.650;37.500;2022-08-11T16:26:40;12.77;;;3.40;;
70385;SDS011;57804;55.650;37.500;2022-08-11T16:29:06;7.55;;;3.25;;
70385;SDS011;57804;55.650;37.500;2022-08-11T16:31:33;6.38;;;3.22;;
70385;SDS011;57804;55.650;37.500;2022-08-11T16:34:00;7.55;;;3.42;;
70385;SDS011;57804;55.650;37.500;2022-08-11T16:36:29;9.65;;;3.88;;
70385;SDS011;57804;55.650;37.500;2022-08-11T16:39:15;6.18;;;3.53;;
70385;SDS011;57804;55.650;37.500;2022-08-11T16:41:44;7.05;;;3.60;;
70385;SDS011;57804;55.650;37.500;2022-08-11T16:44:30;10.43;;;3.47;;
70385;SDS011;57804;55.650;37.500;2022-08-11T16:47:16;7.97;;;3.22;;
70385;SDS011;57804;55.650;37.500;2022-08-11T16:49:43;6.38;;;3.28;;
70385;SDS011;57804;55.650;37.500;2022-08-11T16:52:14;6.70;;;3.28;;
70385;SDS011;57804;55.650;37.500;2022-08-11T16:54:41;7.70;;;3.67;;
70385;SDS011;57804;55.650;37.500;2022-08-11T16:57:09;7.47;;;3.50;;
70385;SDS011;57804;55.650;37.500;2022-08-11T16:59:55;11.02;;;4.22;;
70385;SDS011;57804;55.650;37.500;2022-08-11T17:02:23;11.85;;;5.28;;
70385;SDS011;57804;55.650;37.500;2022-08-11T17:05:12;12.07;;;5.65;;
70385;SDS011;57804;55.650;37.500;2022-08-11T17:07:59;16.30;;;6.18;;
70385;SDS011;57804;55.650;37.500;2022-08-11T17:11:06;13.93;;;4.65;;
70385;SDS011;57804;55.650;37.500;2022-08-11T17:13:56;10.48;;;5.03;;
70385;SDS011;57804;55.650;37.500;2022-08-11T17:16:24;12.57;;;5.40;;
70385;SDS011;57804;55.650;37.500;2022-08-11T17:21:26;10.25;;;4.30;;
70385;SDS011;57804;55.650;37.500;2022-08-11T17:23:53;8.30;;;4.40;;
70385;SDS011;57804;55.650;37.500;2022-08-11T17:26:27;8.38;;;4.28;;
70385;SDS011;57804;55.650;37.500;2022-08-11T17:29:14;10.07;;;4.55;;
70385;SDS011;57804;55.650;37.500;2022-08-11T17:31:41;10.15;;;4.72;;
70385;SDS011;57804;55.650;37.500;2022-08-11T17:34:27;9.35;;;4.05;;
70385;SDS011;57804;55.650;37.500;2022-08-11T17:37:12;8.43;;;4.32;;
70385;SDS011;57804;55.650;37.500;2022-08-11T17:39:38;12.23;;;5.30;;
70385;SDS011;57804;55.650;37.500;2022-08-11T17:42:05;11.73;;;4.18;;
70385;SDS011;57804;55.650;37.500;2022-08-11T17:44:50;12.93;;;4.93;;
70385;SDS011;57804;55.650;37.500;2022-08-11T17:47:35;12.38;;;4.63;;
70385;SDS011;57804;55.650;37.500;2022-08-11T17:50:20;10.57;;;4.18;;
70385;SDS011;57804;55.650;37.500;2022-08-11T17:52:46;9.40;;;4.60;;
70385;SDS011;57804;55.650;37.500;2022-08-11T17:55:32;13.77;;;4.55;;
70385;SDS011;57804;55.650;37.500;2022-08-11T17:58:18;12.45;;;4.75;;
70385;SDS011;57804;55.650;37.500;2022-08-11T18:01:03;9.15;;;4.63;;
70385;SDS011;57804;55.650;37.500;2022-08-11T18:03:30;10.43;;;4.93;;
70385;SDS011;57804;55.650;37.500;2022-08-11T18:08:26;15.25;;;5.10;;
70385;SDS011;57804;55.650;37.500;2022-08-11T18:11:11;9.07;;;4.57;;
70385;SDS011;57804;55.650;37.500;2022-08-11T18:13:57;16.38;;;5.07;;
70385;SDS011;57804;55.650;37.500;2022-08-11T18:16:42;11.93;;;4.78;;
70385;SDS011;57804;55.650;37.500;2022-08-11T18:19:27;12.18;;;4.93;;
70385;SDS011;57804;55.650;37.500;2022-08-11T18:22:16;11.18;;;5.03;;
70385;SDS011;57804;55.650;37.500;2022-08-11T18:25:14;18.60;;;5.30;;
70385;SDS011;57804;55.650;37.500;2022-08-11T18:27:59;16.95;;;5.75;;
70385;SDS011;57804;55.650;37.500;2022-08-11T18:30:45;17.92;;;6.10;;
70385;SDS011;57804;55.650;37.500;2022-08-11T18:33:37;12.27;;;5.65;;
70385;SDS011;57804;55.650;37.500;2022-08-11T18:36:23;13.93;;;5.78;;
70385;SDS011;57804;55.650;37.500;2022-08-11T18:39:11;13.68;;;6.22;;
70385;SDS011;57804;55.650;37.500;2022-08-11T18:41:57;14.52;;;5.88;;
70385;SDS011;57804;55.650;37.500;2022-08-11T18:44:42;16.75;;;6.75;;
70385;SDS011;57804;55.650;37.500;2022-08-11T18:47:27;15.10;;;6.60;;
70385;SDS011;57804;55.650;37.500;2022-08-11T18:50:13;12.43;;;6.40;;
70385;SDS011;57804;55.650;37.500;2022-08-11T18:52:59;11.90;;;5.00;;
70385;SDS011;57804;55.650;37.500;2022-08-11T18:55:44;12.15;;;4.88;;
70385;SDS011;57804;55.650;37.500;2022-08-11T18:58:31;11.27;;;4.93;;
70385;SDS011;57804;55.650;37.500;2022-08-11T19:01:15;13.25;;;5.18;;
70385;SDS011;57804;55.650;37.500;2022-08-11T19:04:03;8.98;;;4.97;;
70385;SDS011;57804;55.650;37.500;2022-08-11T19:06:49;11.02;;;4.60;;
70385;SDS011;57804;55.650;37.500;2022-08-11T19:09:35;10.57;;;4.78;;
70385;SDS011;57804;55.650;37.500;2022-08-11T19:12:21;9.80;;;4.40;;
70385;SDS011;57804;55.650;37.500;2022-08-11T19:15:07;9.32;;;4.22;;
70385;SDS011;57804;55.650;37.500;2022-08-11T19:17:52;7.15;;;3.92;;
70385;SDS011;57804;55.650;37.500;2022-08-11T19:20:37;10.95;;;4.20;;
70385;SDS011;57804;55.650;37.500;2022-08-11T19:23:24;7.70;;;3.90;;
70385;SDS011;57804;55.650;37.500;2022-08-11T19:26:10;9.55;;;3.83;;
70385;SDS011;57804;55.650;37.500;2022-08-11T19:28:55;7.72;;;4.10;;
70385;SDS011;57804;55.650;37.500;2022-08-11T19:31:41;7.72;;;3.97;;
70385;SDS011;57804;55.650;37.500;2022-08-11T19:34:26;10.50;;;4.18;;
70385;SDS011;57804;55.650;37.500;2022-08-11T19:37:11;6.72;;;3.88;;